sensor_id;sensor_type;location;lat;lon;timestamp;pressure;altitude;pressure_sealevel;temperature;humidity
78337;BME280;67610;51.588;7.002;2023-07-30T00:00:38;100236.28;;;18.42;70.88
78337;BME280;67610;51.588;7.002;2023-07-30T00:03:03;100236.69;;;18.39;70.89
78337;BME280;67610;51.588;7.002;2023-07-30T00:05:29;100232.81;;;18.35;70.72
78337;BME280;67610;51.588;7.002;2023-07-30T00:07:54;100228.94;;;18.31;70.47
78337;BME280;67610;51.588;7.002;2023-07-30T00:10:20;100227.94;;;18.26;70.80
78337;BME280;67610;51.588;7.002;2023-07-30T00:12:45;100234.50;;;18.23;70.43
78337;BME280;67610;51.588;7.002;2023-07-30T00:15:10;100231.22;;;18.21;70.78
78337;BME280;67610;51.588;7.002;2023-07-30T00:17:36;100227.16;;;18.19;70.67
78337;BME280;67610;51.588;7.002;2023-07-30T00:20:01;100234.91;;;18.20;70.61
78337;BME280;67610;51.588;7.002;2023-07-30T00:22:27;100231.66;;;18.18;70.39
78337;BME280;67610;51.588;7.002;2023-07-30T00:24:53;100231.66;;;18.18;70.45
78337;BME280;67610;51.588;7.002;2023-07-30T00:27:18;100233.69;;;18.16;70.47
78337;BME280;67610;51.588;7.002;2023-07-30T00:29:43;100232.09;;;18.08;70.07
78337;BME280;67610;51.588;7.002;2023-07-30T00:32:09;100229.88;;;18.05;70.44
78337;BME280;67610;51.588;7.002;2023-07-30T00:34:34;100230.50;;;18.01;70.16
78337;BME280;67610;51.588;7.002;2023-07-30T00:37:00;100234.56;;;17.97;70.14
78337;BME280;67610;51.588;7.002;2023-07-30T00:39:25;100236.63;;;17.95;70.01
78337;BME280;67610;51.588;7.002;2023-07-30T00:41:50;100237.06;;;17.92;70.03
78337;BME280;67610;51.588;7.002;2023-07-30T00:44:16;100235.41;;;17.91;70.19
78337;BME280;67610;51.588;7.002;2023-07-30T00:46:41;100230.09;;;17.91;70.26
78337;BME280;67610;51.588;7.002;2023-07-30T00:49:07;100235.81;;;17.88;70.42
78337;BME280;67610;51.588;7.002;2023-07-30T00:51:33;100234.41;;;17.85;70.53
78337;BME280;67610;51.588;7.002;2023-07-30T00:53:59;100234.00;;;17.82;70.39
78337;BME280;67610;51.588;7.002;2023-07-30T00:56:25;100234.41;;;17.79;70.27
78337;BME280;67610;51.588;7.002;2023-07-30T00:58:52;100235.88;;;17.75;70.37
78337;BME280;67610;51.588;7.002;2023-07-30T01:01:17;100240.97;;;17.76;70.33
78337;BME280;67610;51.588;7.002;2023-07-30T01:03:43;100243.25;;;17.73;70.26
78337;BME280;67610;51.588;7.002;2023-07-30T01:06:08;100245.47;;;17.69;70.35
78337;BME280;67610;51.588;7.002;2023-07-30T01:08:34;100245.31;;;17.64;70.27
78337;BME280;67610;51.588;7.002;2023-07-30T01:11:00;100256.56;;;17.60;70.15
78337;BME280;67610;51.588;7.002;2023-07-30T01:13:27;100250.44;;;17.53;69.99
78337;BME280;67610;51.588;7.002;2023-07-30T01:15:54;100244.06;;;17.47;70.11
78337;BME280;67610;51.588;7.002;2023-07-30T01:18:19;100251.81;;;17.42;70.21
78337;BME280;67610;51.588;7.002;2023-07-30T01:20:44;100247.72;;;17.39;70.58
78337;BME280;67610;51.588;7.002;2023-07-30T01:23:10;100248.56;;;17.40;70.45
78337;BME280;67610;51.588;7.002;2023-07-30T01:25:36;100261.84;;;17.40;70.22
78337;BME280;67610;51.588;7.002;2023-07-30T01:28:04;100253.47;;;17.36;70.50
78337;BME280;67610;51.588;7.002;2023-07-30T01:30:41;100259.81;;;17.35;70.25
78337;BME280;67610;51.588;7.002;2023-07-30T01:33:06;100255.91;;;17.31;69.90
78337;BME280;67610;51.588;7.002;2023-07-30T01:35:33;100260.81;;;17.28;70.04
78337;BME280;67610;51.588;7.002;2023-07-30T01:38:00;100267.16;;;17.27;70.29
78337;BME280;67610;51.588;7.002;2023-07-30T01:40:28;100262.03;;;17.25;70.56
78337;BME280;67610;51.588;7.002;2023-07-30T01:42:54;100261.44;;;17.23;70.42
78337;BME280;67610;51.588;7.002;2023-07-30T01:45:19;100271.03;;;17.24;70.52
78337;BME280;67610;51.588;7.002;2023-07-30T01:47:45;100273.88;;;17.23;70.23
78337;BME280;67610;51.588;7.002;2023-07-30T01:50:10;100280.84;;;17.24;70.11
78337;BME280;67610;51.588;7.002;2023-07-30T01:52:35;100276.38;;;17.24;70.16
78337;BME280;67610;51.588;7.002;2023-07-30T01:55:01;100284.72;;;17.21;70.18
78337;BME280;67610;51.588;7.002;2023-07-30T01:57:26;100289.22;;;17.21;69.95
78337;BME280;67610;51.588;7.002;2023-07-30T01:59:52;100280.63;;;17.19;70.10
78337;BME280;67610;51.588;7.002;2023-07-30T02:02:17;100281.06;;;17.16;70.15
78337;BME280;67610;51.588;7.002;2023-07-30T02:04:42;100282.06;;;17.15;70.35
78337;BME280;67610;51.588;7.002;2023-07-30T02:07:08;100287.38;;;17.15;70.03
78337;BME280;67610;51.588;7.002;2023-07-30T02:09:33;100280.41;;;17.14;70.15
78337;BME280;67610;51.588;7.002;2023-07-30T02:11:58;100279.81;;;17.12;70.01
78337;BME280;67610;51.588;7.002;2023-07-30T02:14:25;100281.03;;;17.09;69.98
78337;BME280;67610;51.588;7.002;2023-07-30T02:16:50;100272.44;;;17.07;70.10
78337;BME280;67610;51.588;7.002;2023-07-30T02:19:15;100276.31;;;17.05;70.14
78337;BME280;67610;51.588;7.002;2023-07-30T02:21:41;100285.34;;;17.04;69.93
78337;BME280;67610;51.588;7.002;2023-07-30T02:24:08;100286.56;;;17.01;70.46
78337;BME280;67610;51.588;7.002;2023-07-30T02:26:36;100291.25;;;16.99;70.11
78337;BME280;67610;51.588;7.002;2023-07-30T02:29:01;100284.91;;;16.94;70.08
78337;BME280;67610;51.588;7.002;2023-07-30T02:31:27;100286.31;;;16.90;70.57
78337;BME280;67610;51.588;7.002;2023-07-30T02:33:52;100283.44;;;16.91;70.30
78337;BME280;67610;51.588;7.002;2023-07-30T02:36:18;100279.19;;;16.90;70.18
78337;BME280;67610;51.588;7.002;2023-07-30T02:38:43;100282.00;;;16.82;70.31
78337;BME280;67610;51.588;7.002;2023-07-30T02:41:08;100283.63;;;16.77;70.73
78337;BME280;67610;51.588;7.002;2023-07-30T02:43:34;100285.66;;;16.74;70.43
78337;BME280;67610;51.588;7.002;2023-07-30T02:45:59;100278.91;;;16.72;70.47
78337;BME280;67610;51.588;7.002;2023-07-30T02:48:24;100281.16;;;16.68;70.65
78337;BME280;67610;51.588;7.002;2023-07-30T02:50:50;100287.69;;;16.66;71.09
78337;BME280;67610;51.588;7.002;2023-07-30T02:53:15;100278.69;;;16.60;71.04
78337;BME280;67610;51.588;7.002;2023-07-30T02:55:40;100277.41;;;16.56;71.27
78337;BME280;67610;51.588;7.002;2023-07-30T02:58:06;100280.69;;;16.52;71.27
78337;BME280;67610;51.588;7.002;2023-07-30T03:00:31;100290.03;;;16.48;71.06
78337;BME280;67610;51.588;7.002;2023-07-30T03:02:56;100284.28;;;16.44;71.21
78337;BME280;67610;51.588;7.002;2023-07-30T03:05:22;100281.84;;;16.43;71.44
78337;BME280;67610;51.588;7.002;2023-07-30T03:07:47;100285.53;;;16.42;71.52
78337;BME280;67610;51.588;7.002;2023-07-30T03:10:12;100285.53;;;16.42;71.83
78337;BME280;67610;51.588;7.002;2023-07-30T03:12:38;100283.88;;;16.41;71.47
78337;BME280;67610;51.588;7.002;2023-07-30T03:15:03;100286.53;;;16.41;71.84
78337;BME280;67610;51.588;7.002;2023-07-30T03:17:29;100282.03;;;16.41;71.72
78337;BME280;67610;51.588;7.002;2023-07-30T03:19:54;100283.88;;;16.41;71.55
78337;BME280;67610;51.588;7.002;2023-07-30T03:22:19;100286.91;;;16.38;71.48
78337;BME280;67610;51.588;7.002;2023-07-30T03:24:48;100286.69;;;16.33;71.54
78337;BME280;67610;51.588;7.002;2023-07-30T03:27:14;100287.09;;;16.30;72.16
78337;BME280;67610;51.588;7.002;2023-07-30T03:29:39;100281.78;;;16.30;71.79
78337;BME280;67610;51.588;7.002;2023-07-30T03:32:05;100287.47;;;16.27;71.78
78337;BME280;67610;51.588;7.002;2023-07-30T03:34:30;100284.41;;;16.23;71.71
78337;BME280;67610;51.588;7.002;2023-07-30T03:36:56;100283.59;;;16.23;71.82
78337;BME280;67610;51.588;7.002;2023-07-30T03:39:21;100280.94;;;16.23;71.80
78337;BME280;67610;51.588;7.002;2023-07-30T03:41:46;100281.53;;;16.18;72.00
78337;BME280;67610;51.588;7.002;2023-07-30T03:44:15;100287.81;;;16.17;72.15
78337;BME280;67610;51.588;7.002;2023-07-30T03:46:40;100283.56;;;16.16;72.18
78337;BME280;67610;51.588;7.002;2023-07-30T03:49:05;100288.84;;;16.16;72.17
78337;BME280;67610;51.588;7.002;2023-07-30T03:51:31;100296.00;;;16.16;72.13
78337;BME280;67610;51.588;7.002;2023-07-30T03:53:57;100294.34;;;16.15;72.04
78337;BME280;67610;51.588;7.002;2023-07-30T03:56:22;100298.03;;;16.14;72.17
78337;BME280;67610;51.588;7.002;2023-07-30T03:58:47;100299.66;;;16.15;71.87
78337;BME280;67610;51.588;7.002;2023-07-30T04:01:13;100307.59;;;16.15;72.14
78337;BME280;67610;51.588;7.002;2023-07-30T04:03:38;100306.00;;;16.14;72.08
78337;BME280;67610;51.588;7.002;2023-07-30T04:06:03;100311.91;;;16.16;72.29
78337;BME280;67610;51.588;7.002;2023-07-30T04:08:29;100320.13;;;16.21;72.10
78337;BME280;67610;51.588;7.002;2023-07-30T04:10:54;100315.44;;;16.23;72.16
78337;BME280;67610;51.588;7.002;2023-07-30T04:13:19;100316.03;;;16.25;72.45
78337;BME280;67610;51.588;7.002;2023-07-30T04:15:47;100314.25;;;16.32;72.17
78337;BME280;67610;51.588;7.002;2023-07-30T04:18:12;100317.13;;;16.37;72.10
78337;BME280;67610;51.588;7.002;2023-07-30T04:20:38;100311.41;;;16.40;72.08
78337;BME280;67610;51.588;7.002;2023-07-30T04:23:03;100311.66;;;16.45;72.14
78337;BME280;67610;51.588;7.002;2023-07-30T04:25:29;100315.19;;;16.52;71.92
78337;BME280;67610;51.588;7.002;2023-07-30T04:27:54;100311.75;;;16.58;71.67
78337;BME280;67610;51.588;7.002;2023-07-30T04:30:19;100312.78;;;16.63;71.83
78337;BME280;67610;51.588;7.002;2023-07-30T04:32:45;100307.31;;;16.65;71.96
78337;BME280;67610;51.588;7.002;2023-07-30T04:35:10;100314.66;;;16.69;71.62
78337;BME280;67610;51.588;7.002;2023-07-30T04:37:36;100318.34;;;16.75;71.88
78337;BME280;67610;51.588;7.002;2023-07-30T04:40:01;100311.44;;;16.81;71.40
78337;BME280;67610;51.588;7.002;2023-07-30T04:42:27;100312.66;;;16.85;71.49
78337;BME280;67610;51.588;7.002;2023-07-30T04:44:52;100320.84;;;16.90;71.88
78337;BME280;67610;51.588;7.002;2023-07-30T04:47:18;100323.75;;;16.95;71.64
78337;BME280;67610;51.588;7.002;2023-07-30T04:49:43;100328.22;;;16.94;71.29
78337;BME280;67610;51.588;7.002;2023-07-30T04:52:09;100329.47;;;16.98;71.49
78337;BME280;67610;51.588;7.002;2023-07-30T04:54:35;100317.63;;;17.07;70.92
78337;BME280;67610;51.588;7.002;2023-07-30T04:57:03;100319.88;;;17.10;70.98
78337;BME280;67610;51.588;7.002;2023-07-30T04:59:29;100323.97;;;17.13;70.46
78337;BME280;67610;51.588;7.002;2023-07-30T05:01:54;100321.72;;;17.10;70.70
78337;BME280;67610;51.588;7.002;2023-07-30T05:04:20;100322.56;;;17.17;70.49
78337;BME280;67610;51.588;7.002;2023-07-30T05:06:45;100318.47;;;17.14;70.73
78337;BME280;67610;51.588;7.002;2023-07-30T05:09:10;100320.28;;;17.14;70.93
78337;BME280;67610;51.588;7.002;2023-07-30T05:11:37;100318.50;;;17.27;70.25
78337;BME280;67610;51.588;7.002;2023-07-30T05:14:03;100319.72;;;17.31;70.03
78337;BME280;67610;51.588;7.002;2023-07-30T05:16:28;100321.34;;;17.32;69.80
78337;BME280;67610;51.588;7.002;2023-07-30T05:18:53;100316.63;;;17.34;70.06
78337;BME280;67610;51.588;7.002;2023-07-30T05:21:19;100327.28;;;17.34;70.02
78337;BME280;67610;51.588;7.002;2023-07-30T05:23:44;100327.50;;;17.39;69.94
78337;BME280;67610;51.588;7.002;2023-07-30T05:26:10;100329.31;;;17.32;69.92
78337;BME280;67610;51.588;7.002;2023-07-30T05:28:35;100329.94;;;17.34;70.08
78337;BME280;67610;51.588;7.002;2023-07-30T05:31:00;100327.69;;;17.38;69.82
78337;BME280;67610;51.588;7.002;2023-07-30T05:33:26;100337.72;;;17.42;69.97
78337;BME280;67610;51.588;7.002;2023-07-30T05:35:51;100328.75;;;17.43;70.03
78337;BME280;67610;51.588;7.002;2023-07-30T05:38:16;100324.25;;;17.51;69.70
78337;BME280;67610;51.588;7.002;2023-07-30T05:40:42;100329.56;;;17.51;69.71
78337;BME280;67610;51.588;7.002;2023-07-30T05:43:08;100325.66;;;17.46;69.37
78337;BME280;67610;51.588;7.002;2023-07-30T05:45:34;100329.56;;;17.51;69.71
78337;BME280;67610;51.588;7.002;2023-07-30T05:47:59;100327.56;;;17.53;69.67
78337;BME280;67610;51.588;7.002;2023-07-30T05:50:25;100326.31;;;17.55;69.77
78337;BME280;67610;51.588;7.002;2023-07-30T05:52:50;100323.25;;;17.58;69.76
78337;BME280;67610;51.588;7.002;2023-07-30T05:55:15;100321.81;;;17.62;69.49
78337;BME280;67610;51.588;7.002;2023-07-30T05:57:41;100331.03;;;17.66;69.55
78337;BME280;67610;51.588;7.002;2023-07-30T06:00:07;100335.72;;;17.71;69.06
78337;BME280;67610;51.588;7.002;2023-07-30T06:02:32;100333.69;;;17.73;69.04
78337;BME280;67610;51.588;7.002;2023-07-30T06:04:57;100339.84;;;17.73;69.41
78337;BME280;67610;51.588;7.002;2023-07-30T06:07:23;100346.59;;;17.76;69.10
78337;BME280;67610;51.588;7.002;2023-07-30T06:09:49;100342.88;;;17.77;69.31
78337;BME280;67610;51.588;7.002;2023-07-30T06:12:14;100339.22;;;17.78;69.22
78337;BME280;67610;51.588;7.002;2023-07-30T06:14:39;100349.63;;;17.79;69.65
78337;BME280;67610;51.588;7.002;2023-07-30T06:17:05;100347.78;;;17.86;69.65
78337;BME280;67610;51.588;7.002;2023-07-30T06:19:30;100345.72;;;17.95;68.85
78337;BME280;67610;51.588;7.002;2023-07-30T06:21:55;100354.31;;;17.97;69.04
78337;BME280;67610;51.588;7.002;2023-07-30T06:24:21;100351.47;;;17.79;69.22
78337;BME280;67610;51.588;7.002;2023-07-30T06:26:46;100353.34;;;17.78;69.16
78337;BME280;67610;51.588;7.002;2023-07-30T06:29:12;100352.50;;;17.84;69.27
78337;BME280;67610;51.588;7.002;2023-07-30T06:31:37;100363.75;;;17.93;69.04
78337;BME280;67610;51.588;7.002;2023-07-30T06:34:02;100362.31;;;17.97;68.54
78337;BME280;67610;51.588;7.002;2023-07-30T06:36:28;100361.09;;;17.99;68.38
78337;BME280;67610;51.588;7.002;2023-07-30T06:38:53;100369.28;;;18.04;68.07
78337;BME280;67610;51.588;7.002;2023-07-30T06:41:19;100356.16;;;18.09;68.20
78337;BME280;67610;51.588;7.002;2023-07-30T06:43:44;100358.81;;;18.16;68.05
78337;BME280;67610;51.588;7.002;2023-07-30T06:46:10;100360.03;;;18.20;67.47
78337;BME280;67610;51.588;7.002;2023-07-30T06:48:35;100362.28;;;18.23;67.80
78337;BME280;67610;51.588;7.002;2023-07-30T06:51:00;100357.78;;;18.24;67.77
78337;BME280;67610;51.588;7.002;2023-07-30T06:53:26;100354.50;;;18.28;67.68
78337;BME280;67610;51.588;7.002;2023-07-30T06:55:51;100356.13;;;18.36;67.30
78337;BME280;67610;51.588;7.002;2023-07-30T06:58:16;100356.50;;;18.39;67.02
78337;BME280;67610;51.588;7.002;2023-07-30T07:00:42;100358.56;;;18.44;66.93
78337;BME280;67610;51.588;7.002;2023-07-30T07:03:07;100367.38;;;18.44;67.41
78337;BME280;67610;51.588;7.002;2023-07-30T07:05:33;100374.38;;;18.45;67.16
78337;BME280;67610;51.588;7.002;2023-07-30T07:07:58;100369.22;;;18.50;67.42
78337;BME280;67610;51.588;7.002;2023-07-30T07:10:23;100367.38;;;18.51;67.40
78337;BME280;67610;51.588;7.002;2023-07-30T07:12:49;100372.09;;;18.49;67.64
78337;BME280;67610;51.588;7.002;2023-07-30T07:15:15;100372.91;;;18.56;67.78
78337;BME280;67610;51.588;7.002;2023-07-30T07:17:40;100370.44;;;18.61;67.59
78337;BME280;67610;51.588;7.002;2023-07-30T07:20:06;100370.03;;;18.64;67.95
78337;BME280;67610;51.588;7.002;2023-07-30T07:22:32;100372.44;;;18.72;67.45
78337;BME280;67610;51.588;7.002;2023-07-30T07:24:58;100371.81;;;18.76;67.34
78337;BME280;67610;51.588;7.002;2023-07-30T07:27:23;100374.44;;;18.83;67.08
78337;BME280;67610;51.588;7.002;2023-07-30T07:29:50;100369.53;;;18.87;66.84
78337;BME280;67610;51.588;7.002;2023-07-30T07:32:15;100370.72;;;18.91;67.13
78337;BME280;67610;51.588;7.002;2023-07-30T07:34:41;100377.25;;;18.95;66.19
78337;BME280;67610;51.588;7.002;2023-07-30T07:37:06;100383.00;;;18.98;66.39
78337;BME280;67610;51.588;7.002;2023-07-30T07:39:32;100383.38;;;19.02;66.37
78337;BME280;67610;51.588;7.002;2023-07-30T07:41:58;100384.19;;;19.02;65.80
78337;BME280;67610;51.588;7.002;2023-07-30T07:44:24;100391.41;;;18.95;65.84
78337;BME280;67610;51.588;7.002;2023-07-30T07:46:49;100393.63;;;19.05;65.28
78337;BME280;67610;51.588;7.002;2023-07-30T07:49:14;100390.34;;;19.03;65.13
78337;BME280;67610;51.588;7.002;2023-07-30T07:51:39;100402.25;;;19.00;65.28
78337;BME280;67610;51.588;7.002;2023-07-30T07:54:05;100392.63;;;18.99;65.12
78337;BME280;67610;51.588;7.002;2023-07-30T07:56:31;100394.66;;;19.04;65.29
78337;BME280;67610;51.588;7.002;2023-07-30T07:58:59;100398.91;;;19.11;65.09
78337;BME280;67610;51.588;7.002;2023-07-30T08:01:24;100403.81;;;19.21;65.26
78337;BME280;67610;51.588;7.002;2023-07-30T08:03:50;100393.06;;;19.34;64.11
78337;BME280;67610;51.588;7.002;2023-07-30T08:06:16;100401.44;;;19.44;64.24
78337;BME280;67610;51.588;7.002;2023-07-30T08:08:41;100393.34;;;19.57;64.07
78337;BME280;67610;51.588;7.002;2023-07-30T08:11:07;100401.81;;;19.79;64.18
78337;BME280;67610;51.588;7.002;2023-07-30T08:13:33;100393.03;;;19.96;63.11
78337;BME280;67610;51.588;7.002;2023-07-30T08:15:59;100398.00;;;20.17;63.34
78337;BME280;67610;51.588;7.002;2023-07-30T08:18:25;100394.56;;;20.35;62.30
78337;BME280;67610;51.588;7.002;2023-07-30T08:20:50;100398.38;;;20.46;62.38
78337;BME280;67610;51.588;7.002;2023-07-30T08:23:16;100396.81;;;20.56;61.06
78337;BME280;67610;51.588;7.002;2023-07-30T08:25:41;100395.88;;;20.69;60.43
78337;BME280;67610;51.588;7.002;2023-07-30T08:28:06;100390.66;;;20.74;60.35
78337;BME280;67610;51.588;7.002;2023-07-30T08:30:32;100391.41;;;20.81;60.42
78337;BME280;67610;51.588;7.002;2023-07-30T08:32:58;100386.34;;;21.09;59.79
78337;BME280;67610;51.588;7.002;2023-07-30T08:35:23;100383.94;;;21.19;59.88
78337;BME280;67610;51.588;7.002;2023-07-30T08:37:48;100390.16;;;21.31;59.11
78337;BME280;67610;51.588;7.002;2023-07-30T08:40:14;100388.59;;;21.53;58.46
78337;BME280;67610;51.588;7.002;2023-07-30T08:42:40;100384.09;;;21.66;58.19
78337;BME280;67610;51.588;7.002;2023-07-30T08:45:06;100390.16;;;21.73;58.18
78337;BME280;67610;51.588;7.002;2023-07-30T08:47:32;100393.31;;;21.81;58.18
78337;BME280;67610;51.588;7.002;2023-07-30T08:49:57;100390.91;;;21.91;57.75
78337;BME280;67610;51.588;7.002;2023-07-30T08:52:24;100397.69;;;21.94;56.85
78337;BME280;67610;51.588;7.002;2023-07-30T08:54:51;100404.06;;;21.93;57.07
78337;BME280;67610;51.588;7.002;2023-07-30T08:57:17;100398.38;;;21.89;57.25
78337;BME280;67610;51.588;7.002;2023-07-30T08:59:52;100395.31;;;21.86;56.74
78337;BME280;67610;51.588;7.002;2023-07-30T09:02:43;100402.41;;;21.80;56.65
78337;BME280;67610;51.588;7.002;2023-07-30T09:05:09;100411.03;;;21.82;57.03
78337;BME280;67610;51.588;7.002;2023-07-30T09:07:35;100406.53;;;21.94;56.47
78337;BME280;67610;51.588;7.002;2023-07-30T09:10:00;100410.72;;;22.37;55.27
78337;BME280;67610;51.588;7.002;2023-07-30T09:12:29;100419.59;;;22.72;55.04
78337;BME280;67610;51.588;7.002;2023-07-30T09:14:58;100417.47;;;22.85;54.42
78337;BME280;67610;51.588;7.002;2023-07-30T09:17:23;100420.56;;;23.06;54.27
78337;BME280;67610;51.588;7.002;2023-07-30T09:19:50;100419.81;;;23.50;53.91
78337;BME280;67610;51.588;7.002;2023-07-30T09:22:26;100425.63;;;23.75;52.00
78337;BME280;67610;51.588;7.002;2023-07-30T09:24:53;100424.94;;;23.80;51.90
78337;BME280;67610;51.588;7.002;2023-07-30T09:27:23;100421.28;;;23.86;52.19
78337;BME280;67610;51.588;7.002;2023-07-30T09:32:20;100412.13;;;24.91;48.70
78337;BME280;67610;51.588;7.002;2023-07-30T09:34:45;100406.25;;;25.21;47.50
78337;BME280;67610;51.588;7.002;2023-07-30T09:37:11;100409.25;;;25.46;46.83
78337;BME280;67610;51.588;7.002;2023-07-30T09:39:37;100415.06;;;25.60;45.01
78337;BME280;67610;51.588;7.002;2023-07-30T09:42:03;100420.13;;;25.83;45.80
78337;BME280;67610;51.588;7.002;2023-07-30T09:44:31;100425.53;;;26.15;45.94
78337;BME280;67610;51.588;7.002;2023-07-30T09:47:00;100423.31;;;26.49;44.31
78337;BME280;67610;51.588;7.002;2023-07-30T09:49:30;100424.63;;;26.46;42.60
78337;BME280;67610;51.588;7.002;2023-07-30T09:51:57;100419.22;;;26.41;41.43
78337;BME280;67610;51.588;7.002;2023-07-30T09:54:23;100418.13;;;26.37;43.14
78337;BME280;67610;51.588;7.002;2023-07-30T09:56:49;100421.13;;;26.41;43.32
78337;BME280;67610;51.588;7.002;2023-07-30T09:59:14;100421.88;;;26.31;41.77
78337;BME280;67610;51.588;7.002;2023-07-30T10:01:45;100429.47;;;26.07;42.20
78337;BME280;67610;51.588;7.002;2023-07-30T10:04:15;100428.03;;;25.95;41.03
78337;BME280;67610;51.588;7.002;2023-07-30T10:06:46;100418.03;;;25.63;42.08
78337;BME280;67610;51.588;7.002;2023-07-30T10:09:19;100418.59;;;25.65;42.77
78337;BME280;67610;51.588;7.002;2023-07-30T10:11:46;100414.47;;;25.58;42.88
78337;BME280;67610;51.588;7.002;2023-07-30T10:14:14;100414.09;;;25.71;42.98
78337;BME280;67610;51.588;7.002;2023-07-30T10:16:52;100413.97;;;25.93;42.36
78337;BME280;67610;51.588;7.002;2023-07-30T10:19:22;100411.38;;;26.03;42.20
78337;BME280;67610;51.588;7.002;2023-07-30T10:21:48;100405.56;;;25.84;42.32
78337;BME280;67610;51.588;7.002;2023-07-30T10:24:13;100405.69;;;25.67;41.82
78337;BME280;67610;51.588;7.002;2023-07-30T10:26:39;100411.28;;;25.34;42.11
78337;BME280;67610;51.588;7.002;2023-07-30T10:29:28;100407.91;;;25.01;42.10
78337;BME280;67610;51.588;7.002;2023-07-30T10:31:54;100417.47;;;24.70;43.25
78337;BME280;67610;51.588;7.002;2023-07-30T10:34:21;100420.38;;;24.47;43.08
78337;BME280;67610;51.588;7.002;2023-07-30T10:36:50;100419.25;;;24.26;44.26
78337;BME280;67610;51.588;7.002;2023-07-30T10:39:39;100429.34;;;24.02;44.18
78337;BME280;67610;51.588;7.002;2023-07-30T10:42:06;100439.72;;;23.82;45.38
78337;BME280;67610;51.588;7.002;2023-07-30T10:44:35;100434.59;;;23.64;47.31
78337;BME280;67610;51.588;7.002;2023-07-30T10:47:02;100427.88;;;23.50;48.51
78337;BME280;67610;51.588;7.002;2023-07-30T10:49:28;100430.72;;;23.32;49.64
78337;BME280;67610;51.588;7.002;2023-07-30T10:51:57;100425.75;;;23.24;48.98
78337;BME280;67610;51.588;7.002;2023-07-30T10:54:23;100429.91;;;23.31;49.25
78337;BME280;67610;51.588;7.002;2023-07-30T10:56:49;100430.47;;;23.90;47.95
78337;BME280;67610;51.588;7.002;2023-07-30T10:59:15;100427.56;;;24.08;48.58
78337;BME280;67610;51.588;7.002;2023-07-30T11:01:44;100422.44;;;24.40;46.48
78337;BME280;67610;51.588;7.002;2023-07-30T11:04:17;100420.69;;;24.88;45.77
78337;BME280;67610;51.588;7.002;2023-07-30T11:06:50;100412.78;;;25.25;42.81
78337;BME280;67610;51.588;7.002;2023-07-30T11:09:23;100419.69;;;25.43;42.91
78337;BME280;67610;51.588;7.002;2023-07-30T11:11:50;100420.25;;;25.67;43.12
78337;BME280;67610;51.588;7.002;2023-07-30T11:14:17;100412.00;;;25.78;42.07
78337;BME280;67610;51.588;7.002;2023-07-30T11:16:55;100415.53;;;25.84;42.11
78337;BME280;67610;51.588;7.002;2023-07-30T11:19:21;100420.06;;;25.78;39.74
78337;BME280;67610;51.588;7.002;2023-07-30T11:21:47;100427.16;;;25.57;40.75
78337;BME280;67610;51.588;7.002;2023-07-30T11:24:13;100426.75;;;25.44;39.83
78337;BME280;67610;51.588;7.002;2023-07-30T11:26:39;100423.44;;;25.15;40.47
78337;BME280;67610;51.588;7.002;2023-07-30T11:29:20;100423.84;;;25.02;41.11
78337;BME280;67610;51.588;7.002;2023-07-30T11:31:46;100425.44;;;25.03;41.33
78337;BME280;67610;51.588;7.002;2023-07-30T11:34:15;100429.03;;;25.09;41.28
78337;BME280;67610;51.588;7.002;2023-07-30T11:36:42;100426.75;;;25.01;41.88
78337;BME280;67610;51.588;7.002;2023-07-30T11:39:08;100425.88;;;25.17;41.75
78337;BME280;67610;51.588;7.002;2023-07-30T11:41:34;100426.63;;;25.12;41.00
78337;BME280;67610;51.588;7.002;2023-07-30T11:44:00;100430.72;;;24.93;41.78
78337;BME280;67610;51.588;7.002;2023-07-30T11:46:25;100418.69;;;25.01;42.05
78337;BME280;67610;51.588;7.002;2023-07-30T11:48:53;100425.91;;;24.95;42.36
78337;BME280;67610;51.588;7.002;2023-07-30T11:53:55;100428.28;;;24.75;41.89
78337;BME280;67610;51.588;7.002;2023-07-30T11:56:31;100431.06;;;24.80;42.41
78337;BME280;67610;51.588;7.002;2023-07-30T11:59:01;100428.81;;;24.93;41.67
78337;BME280;67610;51.588;7.002;2023-07-30T12:01:30;100434.22;;;25.15;40.83
78337;BME280;67610;51.588;7.002;2023-07-30T12:03:56;100428.69;;;25.27;41.38
78337;BME280;67610;51.588;7.002;2023-07-30T12:06:22;100432.56;;;25.36;41.05
78337;BME280;67610;51.588;7.002;2023-07-30T12:08:50;100438.44;;;25.54;40.65
78337;BME280;67610;51.588;7.002;2023-07-30T12:11:17;100423.69;;;25.62;40.25
78337;BME280;67610;51.588;7.002;2023-07-30T12:13:45;100426.56;;;25.50;40.58
78337;BME280;67610;51.588;7.002;2023-07-30T12:16:11;100418.00;;;25.58;40.24
78337;BME280;67610;51.588;7.002;2023-07-30T12:18:38;100425.91;;;25.70;39.40
78337;BME280;67610;51.588;7.002;2023-07-30T12:21:03;100446.78;;;25.53;39.56
78337;BME280;67610;51.588;7.002;2023-07-30T12:23:32;100454.59;;;25.54;40.36
78337;BME280;67610;51.588;7.002;2023-07-30T12:25:57;100458.25;;;25.43;41.30
78337;BME280;67610;51.588;7.002;2023-07-30T12:28:22;100454.88;;;25.53;41.86
78337;BME280;67610;51.588;7.002;2023-07-30T12:30:48;100460.69;;;25.45;42.16
78337;BME280;67610;51.588;7.002;2023-07-30T12:33:13;100453.47;;;25.29;42.22
78337;BME280;67610;51.588;7.002;2023-07-30T12:35:38;100451.41;;;25.14;42.76
78337;BME280;67610;51.588;7.002;2023-07-30T12:38:04;100459.94;;;25.06;43.13
78337;BME280;67610;51.588;7.002;2023-07-30T12:40:29;100468.81;;;24.85;44.11
78337;BME280;67610;51.588;7.002;2023-07-30T12:43:01;100469.06;;;24.67;44.01
78337;BME280;67610;51.588;7.002;2023-07-30T12:45:26;100464.28;;;24.52;44.75
78337;BME280;67610;51.588;7.002;2023-07-30T12:47:52;100466.75;;;24.37;45.03
78337;BME280;67610;51.588;7.002;2023-07-30T12:50:17;100472.13;;;24.20;45.57